Time;durP1;ratioP1;P1;durP2;ratioP2;P2;SDS_P1;SDS_P2;PMS_P1;PMS_P2;Temp;Humidity;BMP_temperature;BMP_pressure;BME280_temperature;BME280_humidity;BME280_pressure;Samples;Min_cycle;Max_cycle;Signal;HPM_P1;HPM_P2
2021/03/09 00:00:28;;;;;;;237.75;93.37;;;;;;;-1.73;60.22;100928.89;2224849;79;29947;-63
2021/03/09 00:03:31;;;;;;;204.45;79.12;;;;;;;-1.81;60.27;100925.73;2227054;79;27609;-62
2021/03/09 00:06:34;;;;;;;200.95;78.80;;;;;;;-1.88;60.34;100924.33;2202796;79;33109;-63
2021/03/09 00:09:36;;;;;;;222.02;81.28;;;;;;;-1.95;60.36;100928.18;2189032;81;29229;-63
2021/03/09 00:12:38;;;;;;;215.47;81.70;;;;;;;-2.03;60.53;100932.93;2193519;79;27649;-61
2021/03/09 00:15:41;;;;;;;224.42;80.22;;;;;;;-2.12;60.68;100928.86;2189295;79;29757;-63
2021/03/09 00:18:43;;;;;;;215.62;80.30;;;;;;;-2.21;60.65;100932.24;2222838;79;32328;-63
2021/03/09 00:35:12;;;;;;;223.07;83.97;;;;;;;-2.63;61.29;100930.80;2222902;78;29466;-63
2021/03/09 00:38:15;;;;;;;215.47;82.33;;;;;;;-2.70;61.40;100936.39;2192050;79;33168;-63
2021/03/09 00:41:17;;;;;;;209.83;82.22;;;;;;;-2.76;61.42;100930.62;2196565;79;28522;-62
2021/03/09 00:44:19;;;;;;;232.55;87.47;;;;;;;-2.80;61.54;100934.47;2208445;79;27642;-62
2021/03/09 00:47:22;;;;;;;214.63;84.25;;;;;;;-2.86;61.61;100923.91;2214707;79;28807;-62
2021/03/09 00:50:24;;;;;;;230.25;86.85;;;;;;;-2.92;61.77;100929.50;2213417;79;31153;-64
2021/03/09 00:53:26;;;;;;;229.90;90.22;;;;;;;-2.97;61.87;100937.70;2192504;79;33218;-62
2021/03/09 00:56:28;;;;;;;234.98;88.33;;;;;;;-3.01;61.96;100932.39;2216799;79;29715;-63
2021/03/09 00:59:30;;;;;;;228.65;89.92;;;;;;;-3.05;61.96;100932.34;2188541;79;27844;-63
2021/03/09 01:02:32;;;;;;;226.70;85.38;;;;;;;-3.08;62.12;100926.17;2190787;79;29181;-63
2021/03/09 01:05:34;;;;;;;216.55;83.50;;;;;;;-3.11;62.11;100920.88;2198357;79;32016;-63
2021/03/09 01:08:36;;;;;;;234.60;86.78;;;;;;;-3.12;62.21;100920.01;2205533;79;31886;-63
2021/03/09 01:11:38;;;;;;;220.37;82.22;;;;;;;-3.11;62.28;100919.56;2193670;79;30121;-63
2021/03/09 01:14:41;;;;;;;234.92;90.97;;;;;;;-3.10;62.40;100916.98;2224464;79;27818;-63
2021/03/09 01:17:43;;;;;;;224.75;90.50;;;;;;;-3.06;62.48;100915.29;2209473;79;28806;-63
2021/03/09 01:20:45;;;;;;;228.05;83.95;;;;;;;-3.03;62.52;100911.41;2223824;79;32129;-62
2021/03/09 01:23:47;;;;;;;227.57;87.20;;;;;;;-3.00;62.45;100908.84;2214836;79;33124;-63
2021/03/09 01:26:49;;;;;;;222.35;86.12;;;;;;;-2.98;62.36;100912.38;2188811;79;31494;-62
2021/03/09 01:29:51;;;;;;;234.62;84.65;;;;;;;-2.97;62.36;100902.31;2189050;81;27648;-63
2021/03/09 01:32:53;;;;;;;247.22;91.55;;;;;;;-2.95;62.36;100901.91;2215835;79;29794;-61
2021/03/09 01:35:56;;;;;;;227.60;89.58;;;;;;;-2.92;62.38;100896.72;2204458;79;32328;-63
2021/03/09 01:38:58;;;;;;;226.22;84.10;;;;;;;-2.91;62.32;100898.94;2214954;80;33767;-63
2021/03/09 01:42:00;;;;;;;232.60;88.87;;;;;;;-2.92;62.23;100896.72;2202632;80;29560;-62
2021/03/09 01:45:05;;;;;;;231.25;86.00;;;;;;;-2.91;62.24;100901.55;2214421;80;27645;-62
2021/03/09 01:48:08;;;;;;;257.10;98.03;;;;;;;-2.93;62.34;100896.27;2191487;80;28879;-62
2021/03/09 01:51:19;;;;;;;232.20;87.05;;;;;;;-2.95;62.44;100891.88;2210180;80;31130;-62
2021/03/09 01:54:21;;;;;;;242.00;92.97;;;;;;;-2.98;62.37;100884.85;2183236;80;33100;-63
2021/03/09 01:57:23;;;;;;;244.13;89.97;;;;;;;-2.97;62.35;100890.96;2187419;80;29150;-63
2021/03/09 02:00:25;;;;;;;242.62;91.45;;;;;;;-2.97;62.35;100889.66;2178976;80;27657;-62
2021/03/09 02:03:27;;;;;;;232.83;90.57;;;;;;;-2.97;62.37;100883.10;2212005;80;29318;-63
2021/03/09 02:06:30;;;;;;;237.48;89.40;;;;;;;-2.98;62.36;100876.99;2215271;80;31126;-64
2021/03/09 02:09:32;;;;;;;227.35;85.22;;;;;;;-2.98;62.34;100870.84;2192847;80;33181;-63
2021/03/09 02:12:52;;;;;;;238.03;90.57;;;;;;;-3.01;62.39;100867.77;2192137;80;29173;-62
2021/03/09 02:16:06;;;;;;;236.25;86.82;;;;;;;-3.00;62.33;100867.32;2203425;80;27617;-63
2021/03/09 02:19:56;;;;;;;224.98;87.90;;;;;;;-3.03;62.32;100855.06;2185887;80;28851;-63
2021/03/09 02:23:19;;;;;;;236.62;88.25;;;;;;;-3.05;62.34;100856.77;2198658;80;32107;-63
2021/03/09 02:26:55;;;;;;;225.47;88.15;;;;;;;-3.10;62.32;100856.71;2186470;80;33131;-64
2021/03/09 02:30:23;;;;;;;239.70;90.50;;;;;;;-3.12;62.46;100857.11;2193465;79;29231;-63
2021/03/09 02:33:40;;;;;;;229.18;88.47;;;;;;;-3.13;62.39;100859.69;2174076;80;27730;-62
2021/03/09 02:36:42;;;;;;;238.35;92.47;;;;;;;-3.15;62.44;100850.95;2215202;78;28837;-64
2021/03/09 02:39:46;;;;;;;234.45;93.10;;;;;;;-3.17;62.46;100855.28;2196312;80;31293;-62
2021/03/09 02:42:52;;;;;;;239.08;90.28;;;;;;;-3.28;62.50;100856.41;2202416;80;32694;-63
2021/03/09 02:45:55;;;;;;;248.00;92.92;;;;;;;-3.34;62.71;100861.55;2189460;80;29371;-63
2021/03/09 02:48:58;;;;;;;241.90;95.20;;;;;;;-3.38;62.74;100861.48;2211298;80;27708;-63
2021/03/09 02:52:02;;;;;;;232.35;94.55;;;;;;;-3.38;62.87;100854.08;2203136;80;29925;-63
2021/03/09 02:55:07;;;;;;;244.17;93.57;;;;;;;-3.39;62.94;100849.69;2186082;80;31286;-62
2021/03/09 02:58:16;;;;;;;251.70;93.47;;;;;;;-3.41;62.93;100854.91;2179602;80;33142;-62
2021/03/09 03:01:20;;;;;;;238.60;91.42;;;;;;;-3.38;62.97;100857.55;2197232;80;29156;-63
2021/03/09 03:04:23;;;;;;;250.38;94.52;;;;;;;-3.40;62.95;100850.13;2213401;80;27773;-62
2021/03/09 03:07:26;;;;;;;240.28;90.87;;;;;;;-3.41;62.95;100857.94;2190208;80;29028;-64
2021/03/09 03:10:28;;;;;;;249.75;94.30;;;;;;;-3.42;62.99;100858.39;2208776;80;31174;-63
2021/03/09 03:13:33;;;;;;;227.93;90.12;;;;;;;-3.40;62.95;100854.47;2207342;80;33158;-64
2021/03/09 03:16:37;;;;;;;234.57;91.97;;;;;;;-3.42;62.88;100861.42;2217229;80;29153;-62
2021/03/09 03:19:39;;;;;;;;;;;;;;;-3.43;62.88;100857.03;2218079;80;27743;-62
2021/03/09 03:22:44;;;;;;;217.03;84.80;;;;;;;-3.45;62.93;100862.27;2208010;80;28806;-62
2021/03/09 03:25:54;;;;;;;222.27;88.20;;;;;;;-3.47;62.85;100858.73;2194045;80;31134;-63
2021/03/09 03:28:56;;;;;;;246.40;92.50;;;;;;;-3.49;62.82;100855.64;2187142;80;33982;-63
2021/03/09 03:31:59;;;;;;;217.15;84.07;;;;;;;-3.51;62.81;100851.25;2216664;80;29171;-62
2021/03/09 03:35:01;;;;;;;231.30;90.62;;;;;;;-3.52;62.83;100845.56;2213176;78;28005;-62
2021/03/09 03:38:04;;;;;;;229.78;92.10;;;;;;;-3.52;62.87;100855.14;2184268;80;28884;-62
2021/03/09 03:41:08;;;;;;;234.18;92.10;;;;;;;-3.54;62.93;100854.23;2191632;80;31548;-62
2021/03/09 03:44:10;;;;;;;236.03;91.00;;;;;;;-3.56;62.84;100852.91;2210056;80;33119;-62
2021/03/09 03:47:12;;;;;;;234.83;90.70;;;;;;;-3.56;62.94;100856.84;2180693;80;29167;-62
2021/03/09 03:50:16;;;;;;;246.00;90.92;;;;;;;-3.55;62.90;100855.08;2179426;80;27722;-61
2021/03/09 03:53:24;;;;;;;228.58;89.85;;;;;;;-3.55;62.88;100861.63;2198562;80;28785;-62
2021/03/09 03:56:51;;;;;;;226.67;88.30;;;;;;;-3.55;62.89;100853.77;2178763;80;31139;-61
2021/03/09 03:59:57;;;;;;;239.82;92.37;;;;;;;-3.56;62.82;100855.52;2180662;80;33173;-62
2021/03/09 04:03:00;;;;;;;226.60;87.75;;;;;;;-3.58;62.80;100853.75;2191322;80;29160;-62
2021/03/09 04:06:05;;;;;;;233.25;93.65;;;;;;;-3.60;62.77;100847.16;2209785;80;27764;-62
2021/03/09 04:09:08;;;;;;;239.40;89.32;;;;;;;-3.61;62.86;100849.31;2197954;80;28805;-61
2021/03/09 04:12:11;;;;;;;257.23;96.45;;;;;;;-3.62;62.88;100850.17;2180336;80;31136;-62
2021/03/09 04:15:14;;;;;;;239.95;94.80;;;;;;;-3.62;62.89;100851.92;2204663;80;33090;-62
2021/03/09 04:18:18;;;;;;;262.65;99.25;;;;;;;-3.65;62.84;100848.83;2192002;80;30029;-59
2021/03/09 04:21:20;;;;;;;256.95;98.12;;;;;;;-3.65;62.97;100846.22;2212234;80;27871;-61
2021/03/09 04:24:24;;;;;;;267.32;96.75;;;;;;;-3.65;62.98;100844.91;2214132;80;28865;-62
2021/03/09 04:27:27;;;;;;;213.97;80.95;;;;;;;-3.66;62.95;100845.76;2184160;80;30305;-62
2021/03/09 04:30:33;;;;;;;251.85;92.60;;;;;;;-3.66;62.90;100848.38;2180863;80;34246;-62
2021/03/09 04:33:36;;;;;;;248.28;95.12;;;;;;;-3.67;62.92;100850.09;2179618;80;29160;-62
2021/03/09 04:36:40;;;;;;;242.85;90.40;;;;;;;-3.67;62.91;100851.84;2207178;78;27689;-62
2021/03/09 04:39:43;;;;;;;234.62;92.47;;;;;;;-3.70;62.93;100846.55;2227996;79;28789;-62
2021/03/09 04:42:45;;;;;;;231.17;89.10;;;;;;;-3.71;62.90;100844.78;2227043;79;31187;-62
2021/03/09 04:45:47;;;;;;;238.75;93.65;;;;;;;-3.72;62.87;100848.25;2227941;79;34076;-63
2021/03/09 04:48:50;;;;;;;241.40;92.95;;;;;;;-3.74;62.82;100843.01;2227452;79;29157;-63
2021/03/09 04:51:53;;;;;;;261.12;100.38;;;;;;;-3.76;62.90;100846.02;2227989;79;27662;-62
2021/03/09 04:54:55;;;;;;;268.05;104.12;;;;;;;-3.79;62.97;100847.68;2197156;79;28809;-63
2021/03/09 04:57:58;;;;;;;262.15;102.07;;;;;;;-3.80;63.44;100844.64;2183903;81;31191;-62
2021/03/09 05:01:01;;;;;;;269.27;101.65;;;;;;;-3.82;63.28;100842.87;2197496;79;33102;-62
2021/03/09 05:04:04;;;;;;;270.57;104.43;;;;;;;-3.84;63.32;100847.19;2198783;79;29591;-63
2021/03/09 05:07:06;;;;;;;273.10;102.38;;;;;;;-3.82;63.27;100853.34;2225846;80;27626;-63
2021/03/09 05:10:10;;;;;;;257.52;106.85;;;;;;;-3.82;63.30;100859.89;2225981;80;27646;-62
2021/03/09 05:13:12;;;;;;;261.05;101.95;;;;;;;-3.83;63.19;100862.05;2225127;79;32159;-62
2021/03/09 05:16:14;;;;;;;269.57;109.40;;;;;;;-3.85;63.29;100865.47;2209591;79;35471;-63
2021/03/09 05:19:16;;;;;;;276.82;107.60;;;;;;;-3.84;63.40;100869.44;2188730;81;30546;-63
2021/03/09 05:22:18;;;;;;;271.35;109.30;;;;;;;-3.84;63.63;100870.75;2188887;81;27595;-67
2021/03/09 05:25:20;;;;;;;259.35;104.38;;;;;;;-3.81;63.48;100867.30;2226668;79;29255;-63
2021/03/09 05:28:23;;;;;;;262.55;107.40;;;;;;;-3.78;63.55;100866.45;2227861;79;31585;-62
2021/03/09 05:31:25;;;;;;;270.52;104.50;;;;;;;-3.76;63.58;100862.14;2219533;79;33835;-77
2021/03/09 05:34:27;;;;;;;242.43;102.27;;;;;;;-3.74;63.65;100865.27;2214612;79;29178;-63
2021/03/09 05:37:30;;;;;;;262.23;107.25;;;;;;;-3.69;63.55;100864.89;2227776;79;27668;-67
2021/03/09 05:40:32;;;;;;;264.20;106.83;;;;;;;-3.67;63.68;100861.88;2204367;79;28806;-63
2021/03/09 05:43:35;;;;;;;251.55;101.80;;;;;;;-3.60;63.80;100865.48;2190274;79;31150;-63
2021/03/09 05:46:37;;;;;;;250.10;104.12;;;;;;;-3.55;63.76;100867.77;2189123;81;33967;-64
2021/03/09 05:49:39;;;;;;;256.07;103.42;;;;;;;-3.48;63.75;100863.95;2189138;81;30132;-63
2021/03/09 05:52:43;;;;;;;255.98;102.85;;;;;;;-3.42;63.79;100870.59;2190486;79;27653;-64
2021/03/09 05:55:45;;;;;;;234.35;98.17;;;;;;;-3.35;63.80;100861.98;2202421;79;28812;-63
2021/03/09 05:58:47;;;;;;;241.73;102.80;;;;;;;-3.29;63.85;100869.92;2204577;79;31142;-64
2021/03/09 06:01:50;;;;;;;244.87;100.45;;;;;;;-3.23;63.99;100860.87;2193314;79;33533;-63
2021/03/09 06:04:53;;;;;;;239.95;100.85;;;;;;;-3.12;64.08;100858.83;2191225;79;30066;-64
2021/03/09 06:07:55;;;;;;;252.28;100.62;;;;;;;-3.02;64.04;100858.55;2208783;79;27688;-64
2021/03/09 06:11:36;;;;;;;242.85;104.20;;;;;;;-2.92;64.07;100857.40;2191387;79;30191;-64
2021/03/09 06:14:59;;;;;;;230.50;100.00;;;;;;;-2.81;64.14;100857.56;2112213;83;32078;-64
2021/03/09 06:18:01;;;;;;;238.12;100.60;;;;;;;-2.68;64.12;100859.94;2127936;82;33116;-65
2021/03/09 06:21:13;;;;;;;237.55;99.28;;;;;;;-2.53;64.18;100862.31;2127891;82;29173;-64
2021/03/09 06:24:20;;;;;;;228.27;92.42;;;;;;;-2.42;64.21;100863.77;2114877;83;27701;-65
2021/03/09 06:27:30;;;;;;;202.60;89.03;;;;;;;-2.27;64.17;100863.95;2090460;85;29854;-65
2021/03/09 06:30:41;;;;;;;197.32;79.90;;;;;;;-2.06;64.30;100866.36;2089736;84;31206;-65
2021/03/09 06:33:43;;;;;;;163.87;71.37;;;;;;;-1.81;64.43;100867.95;2090814;83;34129;-66
2021/03/09 06:37:25;;;;;;;175.27;75.17;;;;;;;-1.56;64.40;100873.88;2092190;85;31639;-65
2021/03/09 06:40:27;;;;;;;171.57;72.70;;;;;;;-1.29;64.33;100868.44;2090998;83;27667;-64
2021/03/09 06:43:29;;;;;;;176.68;76.35;;;;;;;-0.96;64.28;100877.45;2092409;84;29769;-64
2021/03/09 06:46:47;;;;;;;159.75;67.90;;;;;;;-0.67;64.13;100875.89;2092293;84;32323;-65
2021/03/09 06:49:52;;;;;;;164.45;68.33;;;;;;;-0.44;63.96;100867.22;2092252;84;33334;-65
2021/03/09 06:53:04;;;;;;;144.87;61.37;;;;;;;-0.17;63.87;100868.68;2092401;85;29155;-65
2021/03/09 06:56:26;;;;;;;144.25;61.15;;;;;;;0.08;63.75;100871.83;2093877;83;27725;-64
2021/03/09 06:59:32;;;;;;;128.00;54.65;;;;;;;0.34;63.71;100873.63;2092349;84;28824;-64
2021/03/09 07:02:35;;;;;;;133.12;55.63;;;;;;;0.62;63.46;100876.28;2092371;85;31213;-64
2021/03/09 07:05:56;;;;;;;127.85;55.65;;;;;;;0.90;63.24;100867.52;2092149;84;33117;-64
2021/03/09 07:09:11;;;;;;;125.15;54.40;;;;;;;1.17;63.02;100864.41;2092041;85;30029;-64
2021/03/09 07:12:13;;;;;;;144.55;55.25;;;;;;;1.48;62.68;100860.81;2092389;83;27684;-65
2021/03/09 07:15:19;;;;;;;129.95;53.83;;;;;;;1.72;62.38;100861.59;2092002;85;28820;-64
2021/03/09 07:18:24;;;;;;;134.12;57.10;;;;;;;1.97;62.24;100860.63;2091905;85;31230;-64
2021/03/09 07:21:29;;;;;;;;;;;;;;;2.22;61.89;100860.92;2125755;83;33921;-64
2021/03/09 07:24:31;;;;;;;113.03;48.83;;;;;;;2.44;61.65;100861.66;2072858;84;30155;-64
2021/03/09 07:28:04;;;;;;;111.22;48.35;;;;;;;2.63;61.15;100864.17;2059995;85;27705;-64
2021/03/09 07:44:31;;;;;;;95.72;41.85;;;;;;;3.70;59.48;100865.77;2057625;85;28388;-64
2021/03/09 07:47:34;;;;;;;102.67;43.85;;;;;;;3.89;58.95;100866.41;2053159;85;28827;-64
2021/03/09 07:50:42;;;;;;;92.10;42.00;;;;;;;4.04;58.74;100862.69;2057537;85;31161;-65
2021/03/09 07:54:13;;;;;;;93.85;43.80;;;;;;;4.16;58.66;100859.86;2059805;84;33111;-65
2021/03/09 07:57:20;;;;;;;92.50;44.03;;;;;;;4.23;58.01;100862.84;2030620;87;29201;-65
2021/03/09 08:00:22;;;;;;;91.02;43.40;;;;;;;4.34;57.94;100860.50;2040445;85;28311;-65
2021/03/09 08:03:39;;;;;;;70.10;34.50;;;;;;;4.43;57.73;100849.73;2045807;87;28991;-65
2021/03/09 08:06:44;;;;;;;87.10;37.93;;;;;;;4.58;57.48;100853.05;2069803;85;32058;-65
2021/03/09 08:09:56;;;;;;;83.27;35.47;;;;;;;4.80;56.74;100842.52;2246659;78;28079;-65
2021/03/09 08:13:15;;;;;;;79.03;33.30;;;;;;;4.86;56.26;100846.41;2228210;79;28170;-64
2021/03/09 08:16:26;;;;;;;70.15;33.98;;;;;;;4.94;55.87;100844.94;2215217;79;29346;-64
2021/03/09 08:19:38;;;;;;;69.50;33.63;;;;;;;5.00;55.42;100838.17;2204839;79;31158;-65
2021/03/09 08:22:40;;;;;;;78.95;37.83;;;;;;;5.14;55.58;100837.04;2188774;81;34481;-64
2021/03/09 08:25:42;;;;;;;79.80;34.20;;;;;;;5.21;55.55;100831.20;2190414;79;28548;-64
2021/03/09 08:28:45;;;;;;;58.17;27.42;;;;;;;5.28;55.32;100831.48;2147573;82;27653;-64
2021/03/09 08:31:47;;;;;;;59.77;27.75;;;;;;;5.29;54.65;100830.14;2192711;80;29713;-64
2021/03/09 08:35:13;;;;;;;63.70;27.32;;;;;;;5.33;54.86;100830.95;2200209;80;31140;-64
2021/03/09 08:38:18;;;;;;;54.77;26.65;;;;;;;5.34;54.25;100831.38;2177085;81;33166;-63
2021/03/09 08:41:20;;;;;;;43.60;20.75;;;;;;;5.29;54.19;100833.23;2183861;80;34885;-66
2021/03/09 08:44:23;;;;;;;56.65;28.23;;;;;;;5.26;53.53;100831.52;2152161;82;28259;-67
2021/03/09 08:47:31;;;;;;;63.00;29.65;;;;;;;5.29;53.86;100834.56;2195554;80;28816;-68
2021/03/09 08:50:43;;;;;;;60.80;29.75;;;;;;;5.28;53.15;100830.16;2195965;80;31640;-66
2021/03/09 08:53:45;;;;;;;60.17;28.65;;;;;;;5.26;53.53;100828.87;2179203;81;33459;-67
2021/03/09 08:56:47;;;;;;;59.98;28.32;;;;;;;5.25;53.13;100823.56;2179723;80;29322;-66
2021/03/09 09:00:00;;;;;;;59.00;27.55;;;;;;;5.23;52.43;100826.27;2179683;80;27606;-65
2021/03/09 09:03:03;;;;;;;55.40;25.65;;;;;;;5.24;52.69;100823.14;2152998;80;28822;-72
2021/03/09 09:06:05;;;;;;;58.05;24.37;;;;;;;5.27;52.32;100821.76;2193242;80;31104;-67
2021/03/09 09:09:07;;;;;;;64.65;27.80;;;;;;;5.26;52.00;100820.01;2209596;80;33962;-68
2021/03/09 09:12:32;;;;;;;64.65;28.47;;;;;;;5.35;52.54;100818.52;2168887;80;29791;-67
2021/03/09 09:15:34;;;;;;;57.95;26.77;;;;;;;5.44;52.03;100825.43;2193160;80;27785;-68
2021/03/09 09:18:37;;;;;;;56.53;26.97;;;;;;;5.54;51.88;100819.48;2225719;80;28902;-66
2021/03/09 09:21:47;;;;;;;60.70;28.60;;;;;;;5.62;51.86;100819.75;2208192;80;31152;-64
2021/03/09 09:25:04;;;;;;;59.48;28.52;;;;;;;5.70;51.06;100812.94;2153800;80;33191;-69
2021/03/09 09:28:06;;;;;;;60.67;27.77;;;;;;;5.74;51.03;100809.75;2198439;80;29725;-67
2021/03/09 09:31:19;;;;;;;55.35;26.93;;;;;;;5.77;50.71;100808.36;2211430;80;27633;-66
2021/03/09 09:34:37;;;;;;;51.15;24.37;;;;;;;5.79;51.02;100810.54;2178107;81;28023;-66
2021/03/09 09:37:58;;;;;;;45.45;21.87;;;;;;;5.81;50.09;100803.84;2179713;80;31149;-66
2021/03/09 09:41:01;;;;;;;53.42;23.22;;;;;;;5.85;50.10;100795.77;2202913;80;33230;-73
2021/03/09 09:44:03;;;;;;;39.18;19.25;;;;;;;5.89;49.93;100801.88;2207541;80;29832;-71
2021/03/09 09:47:07;;;;;;;41.10;19.23;;;;;;;5.92;50.01;100796.50;2220452;80;27706;-68
2021/03/09 09:50:11;;;;;;;34.45;16.80;;;;;;;5.97;49.69;100797.72;2217226;80;28826;-66
2021/03/09 09:53:15;;;;;;;32.20;16.05;;;;;;;6.00;49.08;100801.23;2223283;78;31144;-65
2021/03/09 09:56:22;;;;;;;33.63;15.75;;;;;;;6.04;48.46;100798.05;2208746;80;33107;-66
2021/03/09 09:59:27;;;;;;;34.18;16.50;;;;;;;5.99;47.64;100801.22;2216676;80;28973;-68
2021/03/09 10:02:29;;;;;;;42.20;18.07;;;;;;;5.95;47.77;100798.23;2214657;80;27727;-69
2021/03/09 10:05:32;;;;;;;30.62;14.47;;;;;;;5.88;48.08;100801.02;2207372;80;28797;-69
2021/03/09 10:08:35;;;;;;;31.73;13.70;;;;;;;5.89;48.09;100800.55;2216866;80;31079;-66
2021/03/09 10:11:56;;;;;;;36.13;15.43;;;;;;;5.90;47.12;100799.20;2178698;81;33974;-68
2021/03/09 10:14:58;;;;;;;25.77;11.15;;;;;;;5.92;47.88;100797.39;2184687;78;29783;-68
2021/03/09 10:18:04;;;;;;;20.80;11.03;;;;;;;5.96;47.10;100789.35;2217186;79;28076;-68
2021/03/09 10:21:11;;;;;;;32.25;12.90;;;;;;;5.98;46.92;100792.82;2208128;78;28830;-68
2021/03/09 10:24:30;;;;;;;29.72;11.83;;;;;;;6.01;47.27;100789.69;2177674;81;31145;-67
2021/03/09 10:27:33;;;;;;;29.48;12.50;;;;;;;6.00;47.04;100789.27;2178123;78;33130;-66
2021/03/09 10:30:41;;;;;;;32.00;11.57;;;;;;;6.08;47.21;100789.09;2227162;78;29874;-68
2021/03/09 10:34:04;;;;;;;31.73;15.55;;;;;;;6.16;46.19;100789.77;2194615;80;27764;-68
2021/03/09 10:37:10;;;;;;;14.58;7.58;;;;;;;6.20;45.60;100787.94;2196618;80;29771;-68
2021/03/09 10:40:13;;;;;;;;;;;;;;;6.28;44.43;100795.73;2199406;78;31132;-70
2021/03/09 10:43:16;;;;;;;14.83;7.33;;;;;;;6.29;44.18;100778.39;2213426;80;33124;-72
2021/03/09 10:46:18;;;;;;;41.37;18.50;;;;;;;6.29;43.23;100782.86;2169074;80;28853;-71
2021/03/09 10:49:20;;;;;;;32.90;13.60;;;;;;;6.22;44.47;100787.42;2200126;80;27693;-69
2021/03/09 10:52:22;;;;;;;14.80;6.78;;;;;;;6.27;43.96;100778.02;2204582;80;28817;-69
2021/03/09 10:55:25;;;;;;;9.00;4.33;;;;;;;6.32;44.12;100788.08;2174321;80;32045;-69
2021/03/09 10:58:28;;;;;;;7.55;3.50;;;;;;;6.42;44.53;100782.97;2200863;78;33333;-67
2021/03/09 11:01:31;;;;;;;18.77;5.15;;;;;;;6.50;42.29;100784.97;2196170;78;28825;-68
2021/03/09 11:04:33;;;;;;;9.78;4.35;;;;;;;6.53;42.17;100771.59;2205852;78;28254;-68
2021/03/09 11:07:36;;;;;;;26.25;7.67;;;;;;;6.63;43.14;100776.66;2208188;78;28809;-70
2021/03/09 11:10:38;;;;;;;6.37;3.90;;;;;;;6.69;41.73;100767.20;2217062;80;31124;-68
2021/03/09 11:13:41;;;;;;;7.72;4.37;;;;;;;6.73;41.10;100760.00;2243719;78;33107;-67
2021/03/09 11:16:43;;;;;;;13.30;5.65;;;;;;;6.74;41.23;100766.63;2211058;80;28865;-67
2021/03/09 11:19:45;;;;;;;10.78;5.55;;;;;;;6.77;40.55;100765.66;2180923;80;28139;-68
2021/03/09 11:22:47;;;;;;;15.15;7.92;;;;;;;6.76;39.82;100766.14;2204321;80;28808;-67
2021/03/09 11:25:50;;;;;;;15.32;7.25;;;;;;;6.62;40.02;100753.17;2191928;80;31604;-70
2021/03/09 11:28:53;;;;;;;14.83;6.15;;;;;;;6.63;40.92;100762.91;2194144;80;33153;-61
2021/03/09 11:31:55;;;;;;;10.98;5.17;;;;;;;6.65;41.00;100759.76;2194480;80;28871;-64
2021/03/09 11:34:58;;;;;;;15.58;5.42;;;;;;;6.64;41.14;100759.78;2176847;80;27637;-59
2021/03/09 11:38:01;;;;;;;9.98;4.83;;;;;;;6.56;41.09;100755.13;2168996;80;29698;-58
2021/03/09 11:41:04;;;;;;;15.10;6.75;;;;;;;6.53;41.07;100750.77;2168762;80;31091;-59
2021/03/09 11:44:07;;;;;;;15.18;5.85;;;;;;;6.53;41.33;100747.63;2171609;80;34475;-59
2021/03/09 11:47:09;;;;;;;22.35;9.75;;;;;;;6.59;40.99;100739.08;2175175;80;28926;-61
2021/03/09 11:50:14;;;;;;;16.52;7.00;;;;;;;6.66;41.17;100735.33;2168561;80;27583;-62
2021/03/09 11:53:16;;;;;;;16.10;7.17;;;;;;;6.77;40.87;100737.27;2185165;80;28812;-64
2021/03/09 11:56:18;;;;;;;30.08;12.65;;;;;;;6.82;40.92;100734.00;2189173;80;31144;-63
2021/03/09 11:59:20;;;;;;;30.10;12.13;;;;;;;6.84;41.00;100734.84;2190481;80;33127;-65
2021/03/09 12:02:22;;;;;;;27.50;9.55;;;;;;;6.79;40.73;100735.41;2198133;80;28874;-66
2021/03/09 12:05:24;;;;;;;14.38;7.00;;;;;;;6.58;39.40;100724.87;2171502;80;27948;-60
2021/03/09 12:08:26;;;;;;;10.63;5.33;;;;;;;6.38;39.69;100729.39;2189463;80;29341;-61
2021/03/09 12:11:28;;;;;;;19.05;6.58;;;;;;;6.25;39.58;100723.97;2172312;80;31146;-60
2021/03/09 12:14:30;;;;;;;20.68;9.20;;;;;;;6.16;39.47;100717.09;2206291;80;33149;-58
2021/03/09 12:17:33;;;;;;;18.17;6.08;;;;;;;6.13;39.49;100710.04;2206650;80;28903;-56
2021/03/09 12:20:35;;;;;;;9.38;5.83;;;;;;;6.17;39.66;100706.40;2206756;80;28139;-57
2021/03/09 12:23:38;;;;;;;20.77;8.25;;;;;;;6.22;39.91;100703.17;2197646;80;29747;-59
2021/03/09 12:26:41;;;;;;;14.83;7.62;;;;;;;6.26;39.79;100703.96;2189650;80;31230;-57
2021/03/09 12:29:44;;;;;;;14.73;7.40;;;;;;;6.31;39.66;100699.84;2167841;80;33103;-59
2021/03/09 12:32:46;;;;;;;14.60;7.45;;;;;;;6.36;40.15;100696.19;2178580;80;28871;-56
2021/03/09 12:35:49;;;;;;;18.05;9.85;;;;;;;6.47;39.82;100695.02;2196063;80;27596;-56
2021/03/09 12:38:51;;;;;;;63.65;34.98;;;;;;;6.57;39.98;100691.66;2169806;81;28833;-58
2021/03/09 12:41:54;;;;;;;53.83;35.95;;;;;;;6.64;39.78;100690.56;2143334;81;30982;-57
2021/03/09 12:44:56;;;;;;;86.20;62.50;;;;;;;6.67;39.53;100694.04;2142388;81;33084;-57
2021/03/09 12:47:58;;;;;;;17.73;13.55;;;;;;;6.67;39.91;100683.39;2158924;81;28876;-57
2021/03/09 12:51:00;;;;;;;14.53;7.92;;;;;;;6.68;39.23;100679.81;2152510;82;27712;-58
2021/03/09 12:54:02;;;;;;;24.00;10.05;;;;;;;6.64;39.07;100671.48;2155526;81;30104;-56
2021/03/09 12:57:05;;;;;;;16.55;8.25;;;;;;;6.58;38.59;100666.31;2155804;82;30436;-57
2021/03/09 13:00:10;;;;;;;30.68;12.47;;;;;;;6.52;39.39;100668.69;2178127;81;33123;-57
2021/03/09 13:03:12;;;;;;;37.33;15.88;;;;;;;6.53;39.25;100666.45;2178612;81;32995;-57
2021/03/09 13:06:14;;;;;;;11.38;5.90;;;;;;;6.58;39.12;100666.79;2209795;79;27584;-59
2021/03/09 13:09:17;;;;;;;15.60;7.92;;;;;;;6.59;37.68;100664.07;2227321;79;28814;-60
2021/03/09 13:12:20;;;;;;;8.33;5.08;;;;;;;6.47;37.86;100661.28;2202955;79;31152;-57
2021/03/09 13:15:22;;;;;;;9.98;4.75;;;;;;;6.36;37.59;100654.94;2178329;81;33063;-58
2021/03/09 13:18:24;;;;;;;13.53;7.33;;;;;;;6.24;37.60;100652.58;2178416;81;29173;-57
2021/03/09 13:21:26;;;;;;;9.88;4.83;;;;;;;6.11;37.54;100648.05;2182533;81;28104;-57
2021/03/09 13:24:29;;;;;;;9.10;5.72;;;;;;;5.97;36.76;100647.03;2125195;82;29070;-59
2021/03/09 13:27:31;;;;;;;8.33;4.25;;;;;;;5.83;37.61;100641.18;2102716;84;31575;-56
2021/03/09 13:30:33;;;;;;;16.02;5.37;;;;;;;5.73;37.32;100642.71;2139391;83;33129;-59
2021/03/09 13:33:35;;;;;;;6.92;3.90;;;;;;;5.65;36.63;100641.15;2174827;81;29935;-60
2021/03/09 13:36:37;;;;;;;7.28;4.20;;;;;;;5.54;37.47;100642.76;2168567;81;27724;-60
2021/03/09 13:39:39;;;;;;;9.68;4.28;;;;;;;5.50;37.30;100635.28;2165458;82;28987;-57
2021/03/09 13:42:43;;;;;;;13.15;6.28;;;;;;;5.48;36.42;100634.44;2165376;82;31110;-59
2021/03/09 13:45:45;;;;;;;9.60;5.08;;;;;;;5.42;36.40;100636.80;2165724;80;33133;-59
2021/03/09 13:48:47;;;;;;;18.57;7.20;;;;;;;5.40;36.16;100631.97;2165692;82;29234;-61
2021/03/09 13:51:50;;;;;;;11.65;5.28;;;;;;;5.44;37.17;100634.98;2165858;82;27803;-58
2021/03/09 13:54:52;;;;;;;9.43;4.72;;;;;;;5.52;37.17;100635.27;2165796;82;29253;-57
2021/03/09 13:57:54;;;;;;;11.48;4.00;;;;;;;5.55;37.01;100628.09;2165766;82;31136;-59
2021/03/09 14:00:56;;;;;;;8.98;3.87;;;;;;;5.54;36.33;100628.14;2199274;80;33115;-59
2021/03/09 14:03:58;;;;;;;8.00;4.45;;;;;;;5.46;35.09;100631.84;2200846;80;29240;-60
2021/03/09 14:07:00;;;;;;;8.40;4.12;;;;;;;5.45;36.36;100630.55;2201668;80;27584;-59
2021/03/09 14:10:03;;;;;;;7.58;6.05;;;;;;;5.44;35.32;100633.65;2201643;80;28837;-60
2021/03/09 14:13:05;;;;;;;10.85;6.62;;;;;;;5.46;36.56;100632.30;2201208;80;31197;-59
2021/03/09 14:16:07;;;;;;;8.98;5.67;;;;;;;5.54;36.67;100626.81;2171604;80;33960;-59
2021/03/09 14:19:11;;;;;;;9.85;5.67;;;;;;;5.55;36.83;100626.77;2165738;81;30012;-60
2021/03/09 14:22:13;;;;;;;18.50;8.63;;;;;;;5.50;35.68;100621.14;2165817;82;27994;-60
2021/03/09 14:25:17;;;;;;;8.63;4.08;;;;;;;5.39;35.81;100618.73;2165694;82;28814;-61
2021/03/09 14:28:19;;;;;;;6.83;3.45;;;;;;;5.30;35.26;100616.69;2165675;80;31997;-59
2021/03/09 14:31:21;;;;;;;17.37;8.13;;;;;;;5.20;35.48;100617.81;2165646;82;34044;-59